sensor_id;sensor_type;location;lat;lon;timestamp;temperature;humidity
45066;DHT22;30830;53.704;10.004;2022-09-09T00:04:16;14.30;99.90
45066;DHT22;30830;53.704;10.004;2022-09-09T00:07:13;14.30;99.90
45066;DHT22;30830;53.704;10.004;2022-09-09T00:18:18;14.30;99.90
45066;DHT22;30830;53.704;10.004;2022-09-09T00:21:11;14.30;99.90
45066;DHT22;30830;53.704;10.004;2022-09-09T00:23:39;14.30;99.90
45066;DHT22;30830;53.704;10.004;2022-09-09T00:29:12;14.30;99.90
45066;DHT22;30830;53.704;10.004;2022-09-09T00:31:40;14.40;99.90
45066;DHT22;30830;53.704;10.004;2022-09-09T00:36:38;14.40;99.90
45066;DHT22;30830;53.704;10.004;2022-09-09T00:39:05;14.40;99.90
45066;DHT22;30830;53.704;10.004;2022-09-09T00:41:50;14.40;99.90
45066;DHT22;30830;53.704;10.004;2022-09-09T00:44:37;14.40;99.90
45066;DHT22;30830;53.704;10.004;2022-09-09T00:47:40;14.40;99.90
45066;DHT22;30830;53.704;10.004;2022-09-09T00:53:51;14.40;99.90
45066;DHT22;30830;53.704;10.004;2022-09-09T00:56:25;14.40;99.90
45066;DHT22;30830;53.704;10.004;2022-09-09T01:01:39;14.30;99.90
45066;DHT22;30830;53.704;10.004;2022-09-09T01:04:13;14.30;99.90
45066;DHT22;30830;53.704;10.004;2022-09-09T01:06:42;14.30;99.90
45066;DHT22;30830;53.704;10.004;2022-09-09T01:09:16;14.30;99.90
45066;DHT22;30830;53.704;10.004;2022-09-09T01:14:49;14.30;99.90
45066;DHT22;30830;53.704;10.004;2022-09-09T01:17:21;14.40;99.90
45066;DHT22;30830;53.704;10.004;2022-09-09T01:22:35;14.40;99.90
45066;DHT22;30830;53.704;10.004;2022-09-09T01:28:08;14.40;99.90
45066;DHT22;30830;53.704;10.004;2022-09-09T01:30:37;14.40;99.90
45066;DHT22;30830;53.704;10.004;2022-09-09T01:33:04;14.40;99.90
45066;DHT22;30830;53.704;10.004;2022-09-09T01:38:10;14.40;99.90
45066;DHT22;30830;53.704;10.004;2022-09-09T01:40:36;14.40;99.90
45066;DHT22;30830;53.704;10.004;2022-09-09T01:43:02;14.40;99.90
45066;DHT22;30830;53.704;10.004;2022-09-09T01:45:28;14.40;99.90
45066;DHT22;30830;53.704;10.004;2022-09-09T01:47:54;14.40;99.90
45066;DHT22;30830;53.704;10.004;2022-09-09T01:50:22;14.40;99.90
45066;DHT22;30830;53.704;10.004;2022-09-09T01:52:50;14.40;99.90
45066;DHT22;30830;53.704;10.004;2022-09-09T01:55:22;14.50;99.90
45066;DHT22;30830;53.704;10.004;2022-09-09T01:58:01;14.50;99.90
45066;DHT22;30830;53.704;10.004;2022-09-09T02:00:35;14.50;99.90
45066;DHT22;30830;53.704;10.004;2022-09-09T02:08:40;14.50;99.90
45066;DHT22;30830;53.704;10.004;2022-09-09T02:11:18;14.50;99.90
45066;DHT22;30830;53.704;10.004;2022-09-09T02:13:49;14.50;99.90
45066;DHT22;30830;53.704;10.004;2022-09-09T02:16:42;14.50;99.90
45066;DHT22;30830;53.704;10.004;2022-09-09T02:19:23;14.50;99.90
45066;DHT22;30830;53.704;10.004;2022-09-09T02:21:53;14.50;99.90
45066;DHT22;30830;53.704;10.004;2022-09-09T02:24:21;14.50;99.90
45066;DHT22;30830;53.704;10.004;2022-09-09T02:26:50;14.50;99.90
45066;DHT22;30830;53.704;10.004;2022-09-09T02:29:39;14.50;99.90
45066;DHT22;30830;53.704;10.004;2022-09-09T02:32:17;14.50;99.90
45066;DHT22;30830;53.704;10.004;2022-09-09T02:34:54;14.50;99.90
45066;DHT22;30830;53.704;10.004;2022-09-09T02:37:23;14.50;99.90
45066;DHT22;30830;53.704;10.004;2022-09-09T02:39:50;14.50;99.90
45066;DHT22;30830;53.704;10.004;2022-09-09T02:42:16;14.40;99.90
45066;DHT22;30830;53.704;10.004;2022-09-09T02:44:41;14.40;99.90
45066;DHT22;30830;53.704;10.004;2022-09-09T02:52:18;14.40;99.90
45066;DHT22;30830;53.704;10.004;2022-09-09T02:54:45;14.40;99.90
45066;DHT22;30830;53.704;10.004;2022-09-09T02:57:16;14.40;99.90
45066;DHT22;30830;53.704;10.004;2022-09-09T02:59:44;14.40;99.90
45066;DHT22;30830;53.704;10.004;2022-09-09T03:02:09;14.30;99.90
45066;DHT22;30830;53.704;10.004;2022-09-09T03:04:37;14.30;99.90
45066;DHT22;30830;53.704;10.004;2022-09-09T03:07:03;14.30;99.90
45066;DHT22;30830;53.704;10.004;2022-09-09T03:09:29;14.30;99.90
45066;DHT22;30830;53.704;10.004;2022-09-09T03:11:55;14.30;99.90
45066;DHT22;30830;53.704;10.004;2022-09-09T03:14:21;14.30;99.90
45066;DHT22;30830;53.704;10.004;2022-09-09T03:16:53;14.30;99.90
45066;DHT22;30830;53.704;10.004;2022-09-09T03:19:20;14.20;99.90
45066;DHT22;30830;53.704;10.004;2022-09-09T03:21:47;14.20;99.90
45066;DHT22;30830;53.704;10.004;2022-09-09T03:24:13;14.20;99.90
45066;DHT22;30830;53.704;10.004;2022-09-09T03:26:40;14.20;99.90
45066;DHT22;30830;53.704;10.004;2022-09-09T03:29:06;14.20;99.90
45066;DHT22;30830;53.704;10.004;2022-09-09T03:31:33;14.20;99.90
45066;DHT22;30830;53.704;10.004;2022-09-09T03:33:59;14.20;99.90
45066;DHT22;30830;53.704;10.004;2022-09-09T03:36:26;14.20;99.90
45066;DHT22;30830;53.704;10.004;2022-09-09T03:38:52;14.20;99.90
45066;DHT22;30830;53.704;10.004;2022-09-09T03:41:19;14.20;99.90
45066;DHT22;30830;53.704;10.004;2022-09-09T03:43:45;14.20;99.90
45066;DHT22;30830;53.704;10.004;2022-09-09T03:46:10;14.20;99.90
45066;DHT22;30830;53.704;10.004;2022-09-09T03:48:36;14.20;99.90
45066;DHT22;30830;53.704;10.004;2022-09-09T03:51:01;14.20;99.90
45066;DHT22;30830;53.704;10.004;2022-09-09T03:53:28;14.20;99.90
45066;DHT22;30830;53.704;10.004;2022-09-09T03:55:56;14.20;99.90
45066;DHT22;30830;53.704;10.004;2022-09-09T03:58:25;14.10;99.90
45066;DHT22;30830;53.704;10.004;2022-09-09T04:00:55;14.10;99.90
45066;DHT22;30830;53.704;10.004;2022-09-09T04:03:21;14.10;99.90
45066;DHT22;30830;53.704;10.004;2022-09-09T04:05:48;14.10;99.90
45066;DHT22;30830;53.704;10.004;2022-09-09T04:08:14;14.10;99.90
45066;DHT22;30830;53.704;10.004;2022-09-09T04:10:40;14.00;99.90
45066;DHT22;30830;53.704;10.004;2022-09-09T04:13:07;14.00;99.90
45066;DHT22;30830;53.704;10.004;2022-09-09T04:15:33;14.00;99.90
45066;DHT22;30830;53.704;10.004;2022-09-09T04:18:00;14.00;99.90
45066;DHT22;30830;53.704;10.004;2022-09-09T04:20:26;14.00;99.90
45066;DHT22;30830;53.704;10.004;2022-09-09T04:22:52;14.00;99.90
45066;DHT22;30830;53.704;10.004;2022-09-09T04:25:17;14.00;99.90
45066;DHT22;30830;53.704;10.004;2022-09-09T04:27:43;14.00;99.90
45066;DHT22;30830;53.704;10.004;2022-09-09T04:30:10;14.00;99.90
45066;DHT22;30830;53.704;10.004;2022-09-09T04:32:35;14.00;99.90
45066;DHT22;30830;53.704;10.004;2022-09-09T04:35:02;14.00;99.90
45066;DHT22;30830;53.704;10.004;2022-09-09T04:37:28;14.00;99.90
45066;DHT22;30830;53.704;10.004;2022-09-09T04:39:53;14.00;99.90
45066;DHT22;30830;53.704;10.004;2022-09-09T04:42:19;14.00;99.90
45066;DHT22;30830;53.704;10.004;2022-09-09T04:44:45;14.00;99.90
45066;DHT22;30830;53.704;10.004;2022-09-09T04:47:10;14.00;99.90
45066;DHT22;30830;53.704;10.004;2022-09-09T04:49:36;14.00;99.90
45066;DHT22;30830;53.704;10.004;2022-09-09T04:52:03;13.90;99.90
45066;DHT22;30830;53.704;10.004;2022-09-09T04:54:29;13.90;99.90
45066;DHT22;30830;53.704;10.004;2022-09-09T04:56:54;13.90;99.90
45066;DHT22;30830;53.704;10.004;2022-09-09T04:59:21;13.80;99.90
45066;DHT22;30830;53.704;10.004;2022-09-09T05:01:47;13.80;99.90
45066;DHT22;30830;53.704;10.004;2022-09-09T05:04:13;13.90;99.90
45066;DHT22;30830;53.704;10.004;2022-09-09T05:06:40;13.80;99.90
45066;DHT22;30830;53.704;10.004;2022-09-09T05:09:07;13.80;99.90
45066;DHT22;30830;53.704;10.004;2022-09-09T05:11:34;13.90;99.90
45066;DHT22;30830;53.704;10.004;2022-09-09T05:14:02;13.80;99.90
45066;DHT22;30830;53.704;10.004;2022-09-09T05:16:28;13.90;99.90
45066;DHT22;30830;53.704;10.004;2022-09-09T05:18:53;13.90;99.90
45066;DHT22;30830;53.704;10.004;2022-09-09T05:21:22;13.90;99.90
45066;DHT22;30830;53.704;10.004;2022-09-09T05:23:48;13.90;99.90
45066;DHT22;30830;53.704;10.004;2022-09-09T05:26:16;13.90;99.90
45066;DHT22;30830;53.704;10.004;2022-09-09T05:28:43;13.90;99.90
45066;DHT22;30830;53.704;10.004;2022-09-09T05:31:09;13.90;99.90
45066;DHT22;30830;53.704;10.004;2022-09-09T05:33:38;13.80;99.90
45066;DHT22;30830;53.704;10.004;2022-09-09T05:36:08;13.80;99.90
45066;DHT22;30830;53.704;10.004;2022-09-09T05:38:36;13.80;99.90
45066;DHT22;30830;53.704;10.004;2022-09-09T05:41:02;13.80;99.90
45066;DHT22;30830;53.704;10.004;2022-09-09T05:43:28;13.80;99.90
45066;DHT22;30830;53.704;10.004;2022-09-09T05:46:09;13.80;99.90
45066;DHT22;30830;53.704;10.004;2022-09-09T05:48:37;13.80;99.90
45066;DHT22;30830;53.704;10.004;2022-09-09T05:51:04;13.70;99.90
45066;DHT22;30830;53.704;10.004;2022-09-09T05:53:30;13.80;99.90
45066;DHT22;30830;53.704;10.004;2022-09-09T05:56:03;13.70;99.90
45066;DHT22;30830;53.704;10.004;2022-09-09T05:58:30;13.70;99.90
45066;DHT22;30830;53.704;10.004;2022-09-09T06:01:09;13.70;99.90
45066;DHT22;30830;53.704;10.004;2022-09-09T06:03:37;13.80;99.90
45066;DHT22;30830;53.704;10.004;2022-09-09T06:06:08;13.70;99.90
45066;DHT22;30830;53.704;10.004;2022-09-09T06:08:35;13.80;99.90
45066;DHT22;30830;53.704;10.004;2022-09-09T06:11:07;13.80;99.90
45066;DHT22;30830;53.704;10.004;2022-09-09T06:13:33;13.80;99.90
45066;DHT22;30830;53.704;10.004;2022-09-09T06:15:59;13.80;99.90
45066;DHT22;30830;53.704;10.004;2022-09-09T06:18:28;13.80;99.90
45066;DHT22;30830;53.704;10.004;2022-09-09T06:21:02;13.90;99.90
45066;DHT22;30830;53.704;10.004;2022-09-09T06:23:32;13.90;99.90
45066;DHT22;30830;53.704;10.004;2022-09-09T06:26:05;13.90;99.90
45066;DHT22;30830;53.704;10.004;2022-09-09T06:28:33;13.90;99.90
45066;DHT22;30830;53.704;10.004;2022-09-09T06:31:00;14.00;99.90
45066;DHT22;30830;53.704;10.004;2022-09-09T06:33:26;14.00;99.90
45066;DHT22;30830;53.704;10.004;2022-09-09T06:35:53;14.10;99.90
45066;DHT22;30830;53.704;10.004;2022-09-09T06:38:20;14.10;99.90
45066;DHT22;30830;53.704;10.004;2022-09-09T06:40:54;14.10;99.90
45066;DHT22;30830;53.704;10.004;2022-09-09T06:43:21;14.10;99.90
45066;DHT22;30830;53.704;10.004;2022-09-09T06:46:01;14.10;99.90
45066;DHT22;30830;53.704;10.004;2022-09-09T06:48:27;14.20;99.90
45066;DHT22;30830;53.704;10.004;2022-09-09T06:53:37;14.20;99.90
45066;DHT22;30830;53.704;10.004;2022-09-09T06:58:47;14.30;99.90
45066;DHT22;30830;53.704;10.004;2022-09-09T07:01:16;14.30;99.90
45066;DHT22;30830;53.704;10.004;2022-09-09T07:03:45;14.40;99.90
45066;DHT22;30830;53.704;10.004;2022-09-09T07:06:20;14.40;99.90
45066;DHT22;30830;53.704;10.004;2022-09-09T07:08:53;14.60;99.90
45066;DHT22;30830;53.704;10.004;2022-09-09T07:11:23;14.80;99.90
45066;DHT22;30830;53.704;10.004;2022-09-09T07:13:49;14.90;99.90
45066;DHT22;30830;53.704;10.004;2022-09-09T07:16:19;15.00;99.90
45066;DHT22;30830;53.704;10.004;2022-09-09T07:18:46;15.10;99.90
45066;DHT22;30830;53.704;10.004;2022-09-09T07:21:13;15.30;99.90
45066;DHT22;30830;53.704;10.004;2022-09-09T07:23:40;15.30;99.90
45066;DHT22;30830;53.704;10.004;2022-09-09T07:26:10;15.40;99.90
45066;DHT22;30830;53.704;10.004;2022-09-09T07:28:37;15.40;99.90
45066;DHT22;30830;53.704;10.004;2022-09-09T07:31:03;15.50;99.90
45066;DHT22;30830;53.704;10.004;2022-09-09T07:33:31;15.70;99.90
45066;DHT22;30830;53.704;10.004;2022-09-09T07:36:09;15.90;99.90
45066;DHT22;30830;53.704;10.004;2022-09-09T07:38:43;16.10;99.90
45066;DHT22;30830;53.704;10.004;2022-09-09T07:41:15;16.20;99.90
45066;DHT22;30830;53.704;10.004;2022-09-09T07:43:42;16.30;99.90
45066;DHT22;30830;53.704;10.004;2022-09-09T07:46:09;16.30;99.90
45066;DHT22;30830;53.704;10.004;2022-09-09T07:48:36;16.30;99.90
45066;DHT22;30830;53.704;10.004;2022-09-09T07:51:11;16.30;99.90
45066;DHT22;30830;53.704;10.004;2022-09-09T07:53:37;16.40;99.90
45066;DHT22;30830;53.704;10.004;2022-09-09T07:56:11;16.40;99.90
45066;DHT22;30830;53.704;10.004;2022-09-09T07:58:38;16.40;99.90
45066;DHT22;30830;53.704;10.004;2022-09-09T08:01:10;16.50;99.90
45066;DHT22;30830;53.704;10.004;2022-09-09T08:03:37;16.40;99.90
45066;DHT22;30830;53.704;10.004;2022-09-09T08:06:04;16.40;99.90
45066;DHT22;30830;53.704;10.004;2022-09-09T08:08:33;16.40;99.90
45066;DHT22;30830;53.704;10.004;2022-09-09T08:11:10;16.50;99.90
45066;DHT22;30830;53.704;10.004;2022-09-09T08:13:37;16.40;99.90
45066;DHT22;30830;53.704;10.004;2022-09-09T08:16:15;16.40;99.90
45066;DHT22;30830;53.704;10.004;2022-09-09T08:18:41;16.40;99.90
45066;DHT22;30830;53.704;10.004;2022-09-09T08:21:15;16.50;99.90
45066;DHT22;30830;53.704;10.004;2022-09-09T08:23:43;16.50;99.90
45066;DHT22;30830;53.704;10.004;2022-09-09T08:28:38;16.50;99.90
45066;DHT22;30830;53.704;10.004;2022-09-09T08:31:13;16.50;99.90
45066;DHT22;30830;53.704;10.004;2022-09-09T08:33:41;16.50;99.90
45066;DHT22;30830;53.704;10.004;2022-09-09T08:36:09;16.70;99.90
45066;DHT22;30830;53.704;10.004;2022-09-09T08:38:36;16.80;99.90
45066;DHT22;30830;53.704;10.004;2022-09-09T08:41:18;17.00;99.90
45066;DHT22;30830;53.704;10.004;2022-09-09T08:44:13;17.00;99.90
45066;DHT22;30830;53.704;10.004;2022-09-09T08:52:08;17.10;99.90
45066;DHT22;30830;53.704;10.004;2022-09-09T08:54:38;17.10;99.90
45066;DHT22;30830;53.704;10.004;2022-09-09T08:57:11;17.10;99.90
45066;DHT22;30830;53.704;10.004;2022-09-09T08:59:39;17.20;99.90
45066;DHT22;30830;53.704;10.004;2022-09-09T09:07:50;17.40;99.90
45066;DHT22;30830;53.704;10.004;2022-09-09T09:10:45;17.50;99.90
45066;DHT22;30830;53.704;10.004;2022-09-09T09:13:21;17.60;99.90
45066;DHT22;30830;53.704;10.004;2022-09-09T09:15:56;17.80;99.90
45066;DHT22;30830;53.704;10.004;2022-09-09T09:18:23;17.90;99.90
45066;DHT22;30830;53.704;10.004;2022-09-09T09:21:12;18.00;99.90
45066;DHT22;30830;53.704;10.004;2022-09-09T09:23:57;18.00;99.90
45066;DHT22;30830;53.704;10.004;2022-09-09T09:26:29;18.10;99.90
45066;DHT22;30830;53.704;10.004;2022-09-09T09:28:56;18.20;99.90
45066;DHT22;30830;53.704;10.004;2022-09-09T09:31:24;18.20;99.90
45066;DHT22;30830;53.704;10.004;2022-09-09T09:33:55;18.30;99.90
45066;DHT22;30830;53.704;10.004;2022-09-09T09:36:24;18.20;99.90
45066;DHT22;30830;53.704;10.004;2022-09-09T09:38:59;18.20;99.90
45066;DHT22;30830;53.704;10.004;2022-09-09T09:43:55;18.20;99.90
45066;DHT22;30830;53.704;10.004;2022-09-09T09:46:23;18.20;99.90
45066;DHT22;30830;53.704;10.004;2022-09-09T09:49:03;18.20;99.90
45066;DHT22;30830;53.704;10.004;2022-09-09T09:51:31;18.10;99.90
45066;DHT22;30830;53.704;10.004;2022-09-09T09:56:39;18.10;99.90
45066;DHT22;30830;53.704;10.004;2022-09-09T09:59:05;18.10;99.90
45066;DHT22;30830;53.704;10.004;2022-09-09T10:01:33;18.10;99.90
45066;DHT22;30830;53.704;10.004;2022-09-09T10:04:02;18.10;99.90
45066;DHT22;30830;53.704;10.004;2022-09-09T10:06:33;18.10;99.90
45066;DHT22;30830;53.704;10.004;2022-09-09T10:08:59;18.20;99.90
45066;DHT22;30830;53.704;10.004;2022-09-09T10:14:23;18.30;99.90
45066;DHT22;30830;53.704;10.004;2022-09-09T10:17:01;18.40;99.90
45066;DHT22;30830;53.704;10.004;2022-09-09T10:19:36;18.60;99.90
45066;DHT22;30830;53.704;10.004;2022-09-09T10:22:20;18.70;99.90
45066;DHT22;30830;53.704;10.004;2022-09-09T10:25:19;18.80;99.90
45066;DHT22;30830;53.704;10.004;2022-09-09T10:28:20;18.90;99.90
45066;DHT22;30830;53.704;10.004;2022-09-09T10:36:46;19.10;99.90
45066;DHT22;30830;53.704;10.004;2022-09-09T10:39:35;19.10;99.90
45066;DHT22;30830;53.704;10.004;2022-09-09T10:42:06;19.10;99.90
45066;DHT22;30830;53.704;10.004;2022-09-09T10:44:52;19.10;99.90
45066;DHT22;30830;53.704;10.004;2022-09-09T10:52:52;19.20;99.90
45066;DHT22;30830;53.704;10.004;2022-09-09T10:55:24;19.20;99.90
45066;DHT22;30830;53.704;10.004;2022-09-09T10:57:53;19.30;99.90
45066;DHT22;30830;53.704;10.004;2022-09-09T11:00:40;19.30;99.90
45066;DHT22;30830;53.704;10.004;2022-09-09T11:05:46;19.30;99.90
45066;DHT22;30830;53.704;10.004;2022-09-09T11:08:26;19.40;99.90
45066;DHT22;30830;53.704;10.004;2022-09-09T11:10:53;19.40;99.90
45066;DHT22;30830;53.704;10.004;2022-09-09T11:18:46;19.50;99.90
45066;DHT22;30830;53.704;10.004;2022-09-09T11:21:20;19.60;99.90
45066;DHT22;30830;53.704;10.004;2022-09-09T11:23:57;19.70;99.90
45066;DHT22;30830;53.704;10.004;2022-09-09T11:26:40;19.70;99.90
45066;DHT22;30830;53.704;10.004;2022-09-09T11:37:51;19.70;99.90
45066;DHT22;30830;53.704;10.004;2022-09-09T11:42:35;19.60;99.90
45066;DHT22;30830;53.704;10.004;2022-09-09T11:47:59;19.40;99.90
45066;DHT22;30830;53.704;10.004;2022-09-09T11:53:02;19.40;99.90
45066;DHT22;30830;53.704;10.004;2022-09-09T11:55:29;19.50;99.90
45066;DHT22;30830;53.704;10.004;2022-09-09T11:58:33;19.50;99.90
45066;DHT22;30830;53.704;10.004;2022-09-09T12:00:50;19.50;99.90
45066;DHT22;30830;53.704;10.004;2022-09-09T12:03:36;19.60;99.90
45066;DHT22;30830;53.704;10.004;2022-09-09T12:06:15;19.70;99.90
45066;DHT22;30830;53.704;10.004;2022-09-09T12:08:44;19.80;99.90
45066;DHT22;30830;53.704;10.004;2022-09-09T12:11:11;19.80;99.90
45066;DHT22;30830;53.704;10.004;2022-09-09T12:13:37;19.80;99.90
45066;DHT22;30830;53.704;10.004;2022-09-09T12:16:02;19.80;99.90
45066;DHT22;30830;53.704;10.004;2022-09-09T12:18:38;19.80;99.90
45066;DHT22;30830;53.704;10.004;2022-09-09T12:21:25;19.90;99.90
45066;DHT22;30830;53.704;10.004;2022-09-09T12:24:03;19.90;99.90
45066;DHT22;30830;53.704;10.004;2022-09-09T12:26:47;19.80;99.90
45066;DHT22;30830;53.704;10.004;2022-09-09T12:31:46;19.80;99.90
45066;DHT22;30830;53.704;10.004;2022-09-09T12:34:31;19.80;99.90
45066;DHT22;30830;53.704;10.004;2022-09-09T12:37:04;19.80;99.90
45066;DHT22;30830;53.704;10.004;2022-09-09T12:39:42;19.70;99.90
45066;DHT22;30830;53.704;10.004;2022-09-09T12:42:18;19.70;99.90
45066;DHT22;30830;53.704;10.004;2022-09-09T12:45:01;19.60;99.90
45066;DHT22;30830;53.704;10.004;2022-09-09T12:50:03;19.60;99.90
45066;DHT22;30830;53.704;10.004;2022-09-09T12:52:32;19.60;99.90
45066;DHT22;30830;53.704;10.004;2022-09-09T12:55:02;19.60;99.90
45066;DHT22;30830;53.704;10.004;2022-09-09T12:57:34;19.60;99.90
45066;DHT22;30830;53.704;10.004;2022-09-09T13:00:27;19.70;99.90
45066;DHT22;30830;53.704;10.004;2022-09-09T13:02:56;19.70;99.90
45066;DHT22;30830;53.704;10.004;2022-09-09T13:05:25;19.70;99.90
45066;DHT22;30830;53.704;10.004;2022-09-09T13:07:51;19.80;99.90
45066;DHT22;30830;53.704;10.004;2022-09-09T13:10:24;19.80;99.90
45066;DHT22;30830;53.704;10.004;2022-09-09T13:12:52;19.80;99.90
45066;DHT22;30830;53.704;10.004;2022-09-09T13:15:22;19.80;99.90
45066;DHT22;30830;53.704;10.004;2022-09-09T13:17:52;19.80;99.90
45066;DHT22;30830;53.704;10.004;2022-09-09T13:20:19;19.80;99.90
45066;DHT22;30830;53.704;10.004;2022-09-09T13:22:48;19.80;99.90
45066;DHT22;30830;53.704;10.004;2022-09-09T13:25:26;19.80;99.90
45066;DHT22;30830;53.704;10.004;2022-09-09T13:27:59;19.70;99.90
45066;DHT22;30830;53.704;10.004;2022-09-09T13:30:27;19.60;99.90
45066;DHT22;30830;53.704;10.004;2022-09-09T13:33:05;19.60;99.90
45066;DHT22;30830;53.704;10.004;2022-09-09T13:35:31;19.50;99.90
45066;DHT22;30830;53.704;10.004;2022-09-09T13:37:58;19.40;99.90
45066;DHT22;30830;53.704;10.004;2022-09-09T13:40:25;19.30;99.90
45066;DHT22;30830;53.704;10.004;2022-09-09T13:42:54;19.10;99.90
45066;DHT22;30830;53.704;10.004;2022-09-09T13:45:22;19.00;99.90
45066;DHT22;30830;53.704;10.004;2022-09-09T13:47:50;18.90;99.90
45066;DHT22;30830;53.704;10.004;2022-09-09T13:50:28;18.80;99.90
45066;DHT22;30830;53.704;10.004;2022-09-09T13:52:56;18.60;99.90
45066;DHT22;30830;53.704;10.004;2022-09-09T13:55:24;18.50;99.90
45066;DHT22;30830;53.704;10.004;2022-09-09T13:57:55;18.30;99.90
45066;DHT22;30830;53.704;10.004;2022-09-09T14:00:22;18.20;99.90
45066;DHT22;30830;53.704;10.004;2022-09-09T14:02:49;18.10;99.90
45066;DHT22;30830;53.704;10.004;2022-09-09T14:05:16;17.90;99.90
45066;DHT22;30830;53.704;10.004;2022-09-09T14:07:43;17.80;99.90
45066;DHT22;30830;53.704;10.004;2022-09-09T14:10:10;17.70;99.90
45066;DHT22;30830;53.704;10.004;2022-09-09T14:12:36;17.70;99.90
45066;DHT22;30830;53.704;10.004;2022-09-09T14:15:04;17.60;99.90
45066;DHT22;30830;53.704;10.004;2022-09-09T14:17:30;17.60;99.90
45066;DHT22;30830;53.704;10.004;2022-09-09T14:19:57;17.50;99.90
45066;DHT22;30830;53.704;10.004;2022-09-09T14:22:23;17.50;99.90
45066;DHT22;30830;53.704;10.004;2022-09-09T14:24:49;17.50;99.90
45066;DHT22;30830;53.704;10.004;2022-09-09T14:27:15;17.50;99.90
45066;DHT22;30830;53.704;10.004;2022-09-09T14:29:41;17.40;99.90
45066;DHT22;30830;53.704;10.004;2022-09-09T14:32:07;17.40;99.90
45066;DHT22;30830;53.704;10.004;2022-09-09T14:34:33;17.40;99.90
45066;DHT22;30830;53.704;10.004;2022-09-09T14:36:58;17.30;99.90
45066;DHT22;30830;53.704;10.004;2022-09-09T14:39:24;17.30;99.90
45066;DHT22;30830;53.704;10.004;2022-09-09T14:41:49;17.30;99.90
45066;DHT22;30830;53.704;10.004;2022-09-09T14:44:15;17.30;99.90
45066;DHT22;30830;53.704;10.004;2022-09-09T14:46:44;17.30;99.90
45066;DHT22;30830;53.704;10.004;2022-09-09T14:49:10;17.20;99.90
45066;DHT22;30830;53.704;10.004;2022-09-09T14:51:36;17.20;99.90
45066;DHT22;30830;53.704;10.004;2022-09-09T14:54:02;17.20;99.90
45066;DHT22;30830;53.704;10.004;2022-09-09T14:56:30;17.20;99.90
45066;DHT22;30830;53.704;10.004;2022-09-09T14:58:58;17.20;99.90
45066;DHT22;30830;53.704;10.004;2022-09-09T15:01:26;17.20;99.90
45066;DHT22;30830;53.704;10.004;2022-09-09T15:04:00;17.20;99.90
45066;DHT22;30830;53.704;10.004;2022-09-09T15:06:29;17.20;99.90
45066;DHT22;30830;53.704;10.004;2022-09-09T15:08:55;17.20;99.90
45066;DHT22;30830;53.704;10.004;2022-09-09T15:11:27;17.20;99.90
45066;DHT22;30830;53.704;10.004;2022-09-09T15:13:55;17.20;99.90
45066;DHT22;30830;53.704;10.004;2022-09-09T15:16:26;17.20;99.90
45066;DHT22;30830;53.704;10.004;2022-09-09T15:18:53;17.20;99.90
45066;DHT22;30830;53.704;10.004;2022-09-09T15:21:21;17.10;99.90
45066;DHT22;30830;53.704;10.004;2022-09-09T15:23:48;17.20;99.90
45066;DHT22;30830;53.704;10.004;2022-09-09T15:26:14;17.20;99.90
45066;DHT22;30830;53.704;10.004;2022-09-09T15:28:41;17.20;99.90
45066;DHT22;30830;53.704;10.004;2022-09-09T15:31:15;17.20;99.90
45066;DHT22;30830;53.704;10.004;2022-09-09T15:33:47;17.20;99.90
45066;DHT22;30830;53.704;10.004;2022-09-09T15:36:23;17.20;99.90
45066;DHT22;30830;53.704;10.004;2022-09-09T15:38:49;17.20;99.90
45066;DHT22;30830;53.704;10.004;2022-09-09T15:41:17;17.20;99.90
45066;DHT22;30830;53.704;10.004;2022-09-09T15:43:47;17.20;99.90
45066;DHT22;30830;53.704;10.004;2022-09-09T15:51:29;17.20;99.90
45066;DHT22;30830;53.704;10.004;2022-09-09T15:53:56;17.20;99.90
45066;DHT22;30830;53.704;10.004;2022-09-09T15:56:27;17.20;99.90
45066;DHT22;30830;53.704;10.004;2022-09-09T15:58:55;17.20;99.90
45066;DHT22;30830;53.704;10.004;2022-09-09T16:01:20;17.10;99.90
45066;DHT22;30830;53.704;10.004;2022-09-09T16:03:46;17.20;99.90
45066;DHT22;30830;53.704;10.004;2022-09-09T16:06:19;17.20;99.90
45066;DHT22;30830;53.704;10.004;2022-09-09T16:08:48;17.20;99.90
45066;DHT22;30830;53.704;10.004;2022-09-09T16:11:19;17.20;99.90
45066;DHT22;30830;53.704;10.004;2022-09-09T16:13:46;17.10;99.90
45066;DHT22;30830;53.704;10.004;2022-09-09T16:16:14;17.20;99.90
45066;DHT22;30830;53.704;10.004;2022-09-09T16:18:51;17.10;99.90
45066;DHT22;30830;53.704;10.004;2022-09-09T16:21:26;17.20;99.90
45066;DHT22;30830;53.704;10.004;2022-09-09T16:23:55;17.20;99.90
45066;DHT22;30830;53.704;10.004;2022-09-09T16:26:20;17.20;99.90
45066;DHT22;30830;53.704;10.004;2022-09-09T16:28:46;17.10;99.90
45066;DHT22;30830;53.704;10.004;2022-09-09T16:31:15;17.10;99.90
45066;DHT22;30830;53.704;10.004;2022-09-09T16:33:41;17.10;99.90
45066;DHT22;30830;53.704;10.004;2022-09-09T16:36:12;17.10;99.90
45066;DHT22;30830;53.704;10.004;2022-09-09T16:38:38;17.00;99.90
45066;DHT22;30830;53.704;10.004;2022-09-09T16:41:05;17.00;99.90
45066;DHT22;30830;53.704;10.004;2022-09-09T16:43:32;17.00;99.90
45066;DHT22;30830;53.704;10.004;2022-09-09T16:45:58;17.00;99.90
45066;DHT22;30830;53.704;10.004;2022-09-09T16:48:35;17.00;99.90
45066;DHT22;30830;53.704;10.004;2022-09-09T16:51:02;17.00;99.90
45066;DHT22;30830;53.704;10.004;2022-09-09T16:53:31;17.00;99.90
45066;DHT22;30830;53.704;10.004;2022-09-09T16:55:57;17.00;99.90
45066;DHT22;30830;53.704;10.004;2022-09-09T16:58:22;16.90;99.90
45066;DHT22;30830;53.704;10.004;2022-09-09T17:00:48;16.90;99.90
45066;DHT22;30830;53.704;10.004;2022-09-09T17:03:14;16.80;99.90
45066;DHT22;30830;53.704;10.004;2022-09-09T17:05:44;16.80;99.90
45066;DHT22;30830;53.704;10.004;2022-09-09T17:08:09;16.80;99.90
45066;DHT22;30830;53.704;10.004;2022-09-09T17:10:40;16.70;99.90
45066;DHT22;30830;53.704;10.004;2022-09-09T17:13:06;16.70;99.90
45066;DHT22;30830;53.704;10.004;2022-09-09T17:15:31;16.70;99.90
45066;DHT22;30830;53.704;10.004;2022-09-09T17:17:57;16.70;99.90
45066;DHT22;30830;53.704;10.004;2022-09-09T17:20:22;16.60;99.90
45066;DHT22;30830;53.704;10.004;2022-09-09T17:22:48;16.60;99.90
45066;DHT22;30830;53.704;10.004;2022-09-09T17:25:14;16.60;99.90
45066;DHT22;30830;53.704;10.004;2022-09-09T17:27:40;16.50;99.90
45066;DHT22;30830;53.704;10.004;2022-09-09T17:30:06;16.50;99.90
45066;DHT22;30830;53.704;10.004;2022-09-09T17:32:31;16.50;99.90